createdAt,value
2018-02-19T00:00:21.289Z,20.37
2018-02-19T00:02:47.978Z,22.83
2018-02-19T00:05:14.594Z,21.73
2018-02-19T00:07:41.212Z,20.02
2018-02-19T00:10:07.842Z,21.60
2018-02-19T00:12:34.457Z,21.15
2018-02-19T00:15:01.070Z,23.02
2018-02-19T00:17:27.816Z,21.98
2018-02-19T00:19:54.446Z,21.40
2018-02-19T00:22:21.073Z,20.98
2018-02-19T00:24:47.693Z,23.12
2018-02-19T00:27:14.309Z,22.52
2018-02-19T00:29:40.930Z,21.45
2018-02-19T00:32:07.642Z,21.60
2018-02-19T00:34:34.258Z,23.83
2018-02-19T00:37:00.919Z,23.25
2018-02-19T00:39:27.599Z,23.20
2018-02-19T00:41:54.797Z,29.33
2018-02-19T00:44:21.449Z,29.95
2018-02-19T00:46:48.090Z,24.75
2018-02-19T00:49:14.741Z,24.90
2018-02-19T00:51:41.365Z,24.02
2018-02-19T00:54:07.977Z,25.05
2018-02-19T00:56:34.602Z,22.92
2018-02-19T00:59:01.234Z,22.98
2018-02-19T01:01:27.920Z,24.10
2018-02-19T01:03:54.568Z,24.58
2018-02-19T01:06:21.310Z,24.65
2018-02-19T01:08:47.924Z,25.60
2018-02-19T01:11:14.581Z,21.40
2018-02-19T01:13:41.209Z,22.85
2018-02-19T01:16:07.822Z,21.40
2018-02-19T01:18:34.502Z,22.40
2018-02-19T01:21:01.255Z,23.75
2018-02-19T01:23:27.861Z,21.02
2018-02-19T01:25:54.526Z,20.52
2018-02-19T01:28:21.267Z,21.37
2018-02-19T01:30:47.869Z,22.05
2018-02-19T01:33:14.590Z,22.00
2018-02-19T01:35:41.285Z,22.23
2018-02-19T01:38:07.893Z,21.20
2018-02-19T01:40:34.556Z,21.55
2018-02-19T01:43:01.193Z,22.92
2018-02-19T01:45:27.802Z,20.30
2018-02-19T01:47:54.415Z,20.05
2018-02-19T01:50:21.044Z,21.00
2018-02-19T01:52:47.653Z,21.02
2018-02-19T01:55:14.273Z,22.27
2018-02-19T01:57:40.898Z,24.30
2018-02-19T02:00:07.611Z,24.95
2018-02-19T02:02:34.223Z,20.62
2018-02-19T02:05:00.844Z,22.80
2018-02-19T02:07:27.487Z,22.35
2018-02-19T02:09:54.098Z,19.70
2018-02-19T02:12:20.730Z,18.50
2018-02-19T02:14:47.446Z,21.20
2018-02-19T02:17:14.149Z,20.23
2018-02-19T02:19:40.891Z,22.02
2018-02-19T02:22:07.501Z,20.15
2018-02-19T02:24:34.114Z,20.90
2018-02-19T02:27:00.808Z,21.58
2018-02-19T02:29:27.413Z,22.27
2018-02-19T02:31:54.086Z,20.42
2018-02-19T02:34:20.714Z,21.00
2018-02-19T02:36:47.328Z,20.23
2018-02-19T02:39:13.939Z,21.73
2018-02-19T02:41:40.641Z,21.30
2018-02-19T02:44:07.321Z,22.73
2018-02-19T02:46:34.024Z,21.58
2018-02-19T02:49:00.634Z,22.67
2018-02-19T02:51:27.304Z,22.55
2018-02-19T02:53:53.935Z,23.83
2018-02-19T02:56:20.537Z,23.27
2018-02-19T02:58:47.219Z,21.70
2018-02-19T03:01:13.831Z,23.80
2018-02-19T03:03:40.451Z,25.90
2018-02-19T03:06:07.102Z,24.08
2018-02-19T03:08:33.714Z,22.60
2018-02-19T03:11:00.419Z,22.55
2018-02-19T03:13:27.194Z,24.37
2018-02-19T03:15:53.890Z,21.58
2018-02-19T03:18:20.505Z,21.42
2018-02-19T03:20:47.133Z,22.17
2018-02-19T03:23:13.742Z,21.45
2018-02-19T03:25:40.349Z,22.60
2018-02-19T03:28:06.982Z,20.88
2018-02-19T03:30:33.601Z,21.35
2018-02-19T03:33:00.266Z,21.58
2018-02-19T03:35:26.937Z,22.40
2018-02-19T03:37:53.555Z,22.42
2018-02-19T03:40:20.328Z,20.52
2018-02-19T03:42:47.026Z,21.42
2018-02-19T03:45:13.639Z,21.62
2018-02-19T03:47:40.263Z,22.33
2018-02-19T03:50:06.987Z,24.00
2018-02-19T03:52:33.610Z,21.20
2018-02-19T03:55:00.230Z,23.62
2018-02-19T03:57:26.842Z,23.55
2018-02-19T03:59:53.475Z,23.02
2018-02-19T04:02:20.142Z,21.77
2018-02-19T04:04:46.821Z,21.77
2018-02-19T04:07:13.426Z,22.27
2018-02-19T04:09:40.062Z,22.98
2018-02-19T04:12:06.691Z,23.15
2018-02-19T04:14:33.338Z,22.17
2018-02-19T04:16:59.973Z,30.12
2018-02-19T04:19:26.610Z,32.88
2018-02-19T04:21:53.222Z,25.17
2018-02-19T04:24:19.834Z,36.03
2018-02-19T04:26:46.542Z,34.03
2018-02-19T04:29:13.155Z,32.30
2018-02-19T04:31:39.776Z,28.45
2018-02-19T04:34:06.490Z,28.00
2018-02-19T04:36:33.185Z,29.85
2018-02-19T04:38:59.797Z,28.10
2018-02-19T04:41:26.422Z,23.70
2018-02-19T04:43:53.037Z,23.77
2018-02-19T04:46:35.430Z,23.90
2018-02-19T04:49:02.042Z,21.58
2018-02-19T04:51:28.659Z,23.02
2018-02-19T04:53:55.333Z,22.30
2018-02-19T04:56:21.975Z,23.20
2018-02-19T04:58:48.596Z,21.73
2018-02-19T05:01:15.222Z,22.98
2018-02-19T05:03:41.835Z,25.12
2018-02-19T05:06:08.534Z,26.23
2018-02-19T05:08:35.162Z,25.62
2018-02-19T05:11:01.848Z,26.87
2018-02-19T05:13:28.551Z,29.65
2018-02-19T05:15:55.285Z,25.60
2018-02-19T05:18:21.905Z,28.90
2018-02-19T05:20:48.566Z,29.55
2018-02-19T05:23:15.194Z,29.40
2018-02-19T05:25:41.805Z,33.35
2018-02-19T05:28:08.409Z,32.63
2018-02-19T05:30:35.131Z,30.62
2018-02-19T05:33:01.746Z,30.02
2018-02-19T05:35:28.371Z,30.50
2018-02-19T05:37:55.073Z,30.30
2018-02-19T05:40:21.721Z,34.65
2018-02-19T05:42:48.338Z,37.92
2018-02-19T05:45:15.065Z,37.70
2018-02-19T05:47:41.702Z,32.47
2018-02-19T05:50:08.315Z,34.15
2018-02-19T05:52:34.985Z,32.55
2018-02-19T05:55:01.595Z,31.98
2018-02-19T05:57:28.297Z,32.22
2018-02-19T05:59:54.901Z,31.55
2018-02-19T06:02:21.534Z,32.50
2018-02-19T06:04:48.170Z,33.08
2018-02-19T06:07:14.778Z,29.00
2018-02-19T06:09:41.456Z,29.85
2018-02-19T06:12:08.086Z,29.50
2018-02-19T06:14:34.771Z,29.85
2018-02-19T06:17:01.482Z,28.05
2018-02-19T06:19:28.109Z,31.62
2018-02-19T06:21:54.723Z,29.40
2018-02-19T06:24:21.351Z,31.33
2018-02-19T06:26:48.030Z,35.45
2018-02-19T06:29:14.650Z,34.08
2018-02-19T06:31:41.261Z,35.10
2018-02-19T06:34:07.986Z,33.13
2018-02-19T06:36:34.691Z,28.17
2018-02-19T06:39:01.367Z,28.10
2018-02-19T06:41:27.977Z,28.77
2018-02-19T06:43:54.611Z,28.87
2018-02-19T06:46:21.342Z,28.30
2018-02-19T06:48:47.991Z,29.20
2018-02-19T06:51:14.598Z,27.42
2018-02-19T06:53:41.262Z,26.40
2018-02-19T06:56:07.887Z,29.55
2018-02-19T06:58:34.499Z,26.95
2018-02-19T07:01:01.221Z,29.87
2018-02-19T07:03:27.923Z,28.25
2018-02-19T07:05:54.550Z,26.35
2018-02-19T07:08:21.203Z,27.00
2018-02-19T07:10:47.880Z,26.08
2018-02-19T07:13:14.586Z,24.67
2018-02-19T07:15:41.203Z,24.55
2018-02-19T07:18:07.861Z,25.08
2018-02-19T07:20:34.499Z,25.55
2018-02-19T07:23:01.114Z,25.40
2018-02-19T07:25:27.816Z,25.60
2018-02-19T07:27:54.422Z,25.58
2018-02-19T07:30:21.039Z,24.20
2018-02-19T07:32:47.695Z,24.27
2018-02-19T07:35:14.334Z,24.33
2018-02-19T07:37:40.950Z,25.33
2018-02-19T07:40:07.577Z,24.27
2018-02-19T07:42:34.292Z,22.87
2018-02-19T07:45:00.921Z,24.35
2018-02-19T07:47:27.529Z,26.08
2018-02-19T07:49:54.137Z,23.48
2018-02-19T07:52:20.807Z,24.70
2018-02-19T07:54:47.416Z,25.35
2018-02-19T07:57:14.081Z,25.05
2018-02-19T07:59:40.698Z,24.95
2018-02-19T08:02:07.312Z,24.80
2018-02-19T08:04:33.997Z,26.30
2018-02-19T08:07:00.644Z,24.73
2018-02-19T08:09:27.258Z,26.35
2018-02-19T08:11:53.922Z,26.85
2018-02-19T08:14:20.558Z,26.75
2018-02-19T08:16:47.199Z,26.27
2018-02-19T08:19:13.838Z,27.48
2018-02-19T08:21:40.470Z,26.30
2018-02-19T08:24:07.091Z,28.70
2018-02-19T08:26:33.855Z,28.30
2018-02-19T08:29:00.500Z,25.92
2018-02-19T08:31:27.117Z,23.90
2018-02-19T08:33:53.745Z,25.85
2018-02-19T08:36:20.358Z,24.35
2018-02-19T08:38:46.975Z,22.37
2018-02-19T08:41:13.598Z,24.12
2018-02-19T08:43:40.215Z,24.40
2018-02-19T08:46:06.863Z,24.23
2018-02-19T08:48:33.494Z,21.98
2018-02-19T08:51:00.146Z,22.40
2018-02-19T08:53:26.788Z,23.40
2018-02-19T08:55:53.528Z,24.77
2018-02-19T08:58:20.129Z,23.23
2018-02-19T09:00:46.845Z,21.90
2018-02-19T09:03:13.455Z,22.70
2018-02-19T09:05:40.065Z,21.50
2018-02-19T09:08:06.690Z,22.05
2018-02-19T09:10:33.305Z,19.45
2018-02-19T09:13:00.041Z,19.55
2018-02-19T09:15:26.783Z,18.70
2018-02-19T09:17:53.393Z,19.08
2018-02-19T09:20:20.123Z,18.02
2018-02-19T09:22:46.767Z,18.50
2018-02-19T09:25:13.387Z,19.75
2018-02-19T09:27:40.042Z,18.58
2018-02-19T09:30:06.717Z,18.00
2018-02-19T09:32:33.317Z,19.50
2018-02-19T09:35:00.059Z,19.15
2018-02-19T09:37:26.679Z,18.37
2018-02-19T09:39:53.290Z,17.40
2018-02-19T09:42:19.979Z,17.75
2018-02-19T09:44:46.598Z,18.05
2018-02-19T09:47:13.217Z,20.62
2018-02-19T09:49:39.894Z,17.50
2018-02-19T09:52:06.505Z,17.00
2018-02-19T09:54:33.124Z,18.67
2018-02-19T09:56:59.813Z,19.45
2018-02-19T09:59:26.418Z,17.23
2018-02-19T10:01:53.090Z,17.45
2018-02-19T10:04:19.720Z,17.37
2018-02-19T10:06:46.330Z,18.98
2018-02-19T10:09:13.005Z,18.92
2018-02-19T10:11:39.613Z,17.40
2018-02-19T10:14:06.286Z,19.83
2018-02-19T10:16:33.025Z,18.80
2018-02-19T10:18:59.638Z,20.15
2018-02-19T10:21:26.246Z,16.73
2018-02-19T10:23:52.874Z,18.00
2018-02-19T10:26:19.507Z,17.25
2018-02-19T10:28:46.119Z,19.27
2018-02-19T10:31:12.886Z,18.45
2018-02-19T10:33:39.497Z,19.50
2018-02-19T10:36:06.179Z,16.95
2018-02-19T10:38:32.882Z,17.92
2018-02-19T10:40:59.518Z,16.83
2018-02-19T10:43:26.131Z,17.80
2018-02-19T10:45:52.793Z,19.37
2018-02-19T10:48:19.433Z,18.08
2018-02-19T10:50:46.088Z,17.50
2018-02-19T10:53:12.715Z,18.75
2018-02-19T10:55:39.326Z,18.25
2018-02-19T10:58:05.990Z,18.58
2018-02-19T11:00:51.504Z,16.95
2018-02-19T11:03:18.126Z,17.52
2018-02-19T11:05:44.747Z,18.55
2018-02-19T11:08:11.394Z,16.92
2018-02-19T11:10:38.133Z,15.50
2018-02-19T11:13:04.742Z,17.87
2018-02-19T11:15:31.353Z,16.45
2018-02-19T11:17:58.050Z,17.00
2018-02-19T11:20:24.663Z,15.85
2018-02-19T11:22:51.322Z,16.95
2018-02-19T11:25:17.954Z,16.17
2018-02-19T11:27:44.573Z,15.88
2018-02-19T11:30:11.203Z,17.83
2018-02-19T11:32:37.926Z,17.67
2018-02-19T11:35:05.559Z,16.00
2018-02-19T11:37:32.170Z,16.83
2018-02-19T11:39:58.802Z,18.02
2018-02-19T11:42:25.413Z,17.23
2018-02-19T11:44:52.143Z,16.25
2018-02-19T11:47:18.891Z,18.02
2018-02-19T11:49:45.526Z,17.20
2018-02-19T11:52:12.142Z,17.40
2018-02-19T11:54:38.899Z,17.23
2018-02-19T11:57:05.489Z,18.30
2018-02-19T11:59:32.102Z,16.80
2018-02-19T12:01:58.787Z,17.42
2018-02-19T12:04:25.426Z,17.60
2018-02-19T12:06:52.042Z,15.95
2018-02-19T12:09:18.678Z,17.60
2018-02-19T12:11:45.290Z,17.23
2018-02-19T12:14:11.903Z,17.10
2018-02-19T12:16:38.525Z,16.83
2018-02-19T12:19:05.157Z,17.62
2018-02-19T12:21:31.782Z,17.15
2018-02-19T12:23:58.394Z,17.12
2018-02-19T12:26:25.002Z,17.75
2018-02-19T12:28:51.751Z,17.73
2018-02-19T12:31:18.365Z,18.15
2018-02-19T12:33:44.995Z,16.73
2018-02-19T12:36:11.669Z,18.60
2018-02-19T12:38:38.308Z,18.30
2018-02-19T12:41:04.913Z,17.52
2018-02-19T12:43:31.646Z,19.12
2018-02-19T12:45:58.282Z,16.60
2018-02-19T12:48:24.899Z,17.60
2018-02-19T12:50:51.570Z,18.02
2018-02-19T12:53:18.206Z,17.52
2018-02-19T12:55:44.822Z,17.30
2018-02-19T12:58:11.524Z,17.52
2018-02-19T13:00:38.230Z,20.75
2018-02-19T13:03:04.866Z,18.30
2018-02-19T13:05:31.494Z,19.58
2018-02-19T13:07:58.113Z,18.62
2018-02-19T13:10:24.726Z,16.52
2018-02-19T13:12:51.418Z,18.33
2018-02-19T13:15:18.026Z,16.87
2018-02-19T13:17:44.699Z,16.87
2018-02-19T13:20:11.322Z,16.02
2018-02-19T13:22:37.950Z,17.30
2018-02-19T13:25:04.614Z,15.70
2018-02-19T13:27:31.228Z,16.92
2018-02-19T13:29:57.894Z,16.62
2018-02-19T13:32:24.522Z,16.00
2018-02-19T13:34:51.139Z,16.55
2018-02-19T13:37:17.851Z,18.52
2018-02-19T13:39:44.482Z,16.92
2018-02-19T13:42:11.192Z,19.62
2018-02-19T13:44:37.836Z,18.85
2018-02-19T13:47:04.463Z,16.25
2018-02-19T13:49:31.105Z,16.60
2018-02-19T13:51:57.722Z,16.12
2018-02-19T13:54:24.395Z,16.52
2018-02-19T13:56:51.002Z,16.75
2018-02-19T13:59:17.609Z,17.25
2018-02-19T14:01:44.233Z,16.98
2018-02-19T14:04:10.937Z,16.75
2018-02-19T14:06:37.549Z,17.50
2018-02-19T14:09:04.266Z,17.40
2018-02-19T14:11:30.875Z,18.30
2018-02-19T14:13:57.473Z,18.85
2018-02-19T14:16:24.106Z,19.75
2018-02-19T14:18:50.773Z,17.80
2018-02-19T14:21:17.388Z,24.17
2018-02-19T14:23:44.018Z,28.55
2018-02-19T14:26:10.693Z,26.55
2018-02-19T14:28:37.430Z,27.85
2018-02-19T14:31:04.045Z,18.92
2018-02-19T14:33:30.658Z,20.00
2018-02-19T14:35:57.354Z,27.45
2018-02-19T14:38:23.998Z,28.30
2018-02-19T14:40:50.614Z,18.48
2018-02-19T14:43:17.241Z,29.12
2018-02-19T14:45:43.873Z,32.70
2018-02-19T14:48:10.487Z,24.10
2018-02-19T14:50:37.113Z,20.62
2018-02-19T14:53:03.731Z,24.12
2018-02-19T14:55:30.362Z,18.65
2018-02-19T14:57:57.009Z,23.75
2018-02-19T15:00:23.623Z,17.92
2018-02-19T15:02:50.281Z,18.05
2018-02-19T15:05:17.005Z,17.48
2018-02-19T15:07:43.704Z,17.58
2018-02-19T15:10:10.314Z,16.40
2018-02-19T15:12:36.937Z,20.17
2018-02-19T15:15:03.578Z,20.88
2018-02-19T15:17:30.209Z,18.90
2018-02-19T15:19:56.826Z,20.85
2018-02-19T15:22:23.439Z,17.27
2018-02-19T15:24:50.062Z,17.87
2018-02-19T15:27:16.774Z,23.75
2018-02-19T15:29:43.498Z,18.25
2018-02-19T15:32:10.120Z,21.25
2018-02-19T15:34:36.836Z,21.50
2018-02-19T15:37:03.478Z,21.25
2018-02-19T15:39:30.113Z,22.80
2018-02-19T15:41:56.753Z,18.77
2018-02-19T15:44:23.457Z,20.00
2018-02-19T15:46:50.070Z,19.10
2018-02-19T15:49:16.773Z,20.20
2018-02-19T15:51:43.382Z,18.35
2018-02-19T15:54:10.011Z,19.55
2018-02-19T15:56:36.644Z,20.88
2018-02-19T15:59:03.342Z,19.73
2018-02-19T16:01:29.930Z,20.77
2018-02-19T16:03:56.710Z,20.42
2018-02-19T16:06:23.414Z,21.05
2018-02-19T16:08:50.022Z,20.52
2018-02-19T16:11:16.666Z,20.92
2018-02-19T16:13:43.330Z,21.30
2018-02-19T16:16:09.966Z,21.92
2018-02-19T16:18:36.598Z,21.65
2018-02-19T16:21:03.216Z,21.50
2018-02-19T16:23:29.883Z,22.75
2018-02-19T16:25:56.505Z,22.42
2018-02-19T16:28:23.156Z,23.92
2018-02-19T16:30:49.772Z,22.45
2018-02-19T16:33:16.433Z,24.37
2018-02-19T16:35:43.058Z,22.73
2018-02-19T16:38:09.718Z,23.75
2018-02-19T16:40:36.459Z,24.87
2018-02-19T16:43:03.074Z,23.58
2018-02-19T16:45:29.738Z,28.65
2018-02-19T16:47:56.473Z,27.73
2018-02-19T16:50:23.118Z,25.80
2018-02-19T16:52:49.754Z,22.95
2018-02-19T16:55:16.386Z,24.23
2018-02-19T16:57:43.034Z,23.30
2018-02-19T17:00:09.649Z,22.75
2018-02-19T17:02:36.278Z,22.77
2018-02-19T17:05:02.894Z,23.65
2018-02-19T17:07:29.593Z,21.87
2018-02-19T17:09:56.350Z,25.27
2018-02-19T17:12:22.969Z,25.00
2018-02-19T17:14:49.586Z,25.40
2018-02-19T17:17:16.250Z,24.70
2018-02-19T17:19:42.862Z,27.23
2018-02-19T17:22:09.477Z,25.48
2018-02-19T17:24:36.097Z,27.27
2018-02-19T17:27:02.745Z,26.90
2018-02-19T17:29:29.446Z,25.25
2018-02-19T17:31:56.070Z,24.87
2018-02-19T17:34:22.686Z,22.58
2018-02-19T17:36:49.314Z,24.98
2018-02-19T17:39:16.006Z,24.05
2018-02-19T17:41:42.641Z,25.10
2018-02-19T17:44:09.270Z,26.17
2018-02-19T17:46:35.886Z,26.60
2018-02-19T17:49:02.558Z,28.12
2018-02-19T17:51:29.188Z,25.33
2018-02-19T17:53:55.798Z,26.15
2018-02-19T17:56:22.473Z,25.48
2018-02-19T17:58:49.123Z,27.20
2018-02-19T18:01:15.718Z,27.80
2018-02-19T18:03:42.345Z,28.05
2018-02-19T18:06:09.034Z,26.42
2018-02-19T18:08:35.642Z,29.25
2018-02-19T18:11:02.311Z,29.83
2018-02-19T18:13:28.914Z,29.63
2018-02-19T18:15:55.527Z,28.33
2018-02-19T18:18:22.250Z,32.75
2018-02-19T18:20:48.870Z,31.35
2018-02-19T18:23:15.501Z,28.40
2018-02-19T18:25:42.117Z,29.80
2018-02-19T18:28:08.790Z,28.25
2018-02-19T18:30:35.525Z,31.12
2018-02-19T18:33:02.165Z,28.10
2018-02-19T18:35:28.906Z,27.42
2018-02-19T18:37:55.518Z,28.55
2018-02-19T18:40:22.134Z,28.70
2018-02-19T18:42:48.826Z,28.92
2018-02-19T18:45:15.467Z,30.27
2018-02-19T18:47:42.078Z,30.42
2018-02-19T18:50:08.742Z,30.92
2018-02-19T18:52:35.367Z,32.13
2018-02-19T18:55:01.991Z,29.85
2018-02-19T18:57:28.620Z,31.87
2018-02-19T18:59:55.235Z,33.00
2018-02-19T19:02:21.876Z,32.28
2018-02-19T19:04:48.507Z,32.42
2018-02-19T19:07:21.182Z,28.65
2018-02-19T19:09:53.772Z,30.05
2018-02-19T19:12:20.382Z,31.05
2018-02-19T19:14:47.002Z,32.20
2018-02-19T19:17:13.634Z,30.88
2018-02-19T19:19:40.246Z,30.20
2018-02-19T19:22:06.858Z,29.02
2018-02-19T19:24:33.498Z,32.22
2018-02-19T19:27:00.206Z,30.73
2018-02-19T19:29:26.841Z,30.12
2018-02-19T19:31:53.475Z,31.23
2018-02-19T19:34:20.090Z,29.98
2018-02-19T19:36:46.804Z,30.77
2018-02-19T19:39:13.421Z,33.58
2018-02-19T19:41:40.042Z,32.72
2018-02-19T19:44:06.722Z,31.33
2018-02-19T19:46:33.346Z,31.37
2018-02-19T19:48:59.956Z,30.12
2018-02-19T19:51:26.569Z,30.60
2018-02-19T19:53:53.202Z,32.47
2018-02-19T19:56:19.822Z,29.27
2018-02-19T19:58:46.430Z,34.95
2018-02-19T20:01:13.050Z,33.45
2018-02-19T20:03:39.689Z,32.20
2018-02-19T20:06:06.330Z,33.38
2018-02-19T20:08:32.970Z,30.48
2018-02-19T20:10:59.615Z,30.40
2018-02-19T20:13:26.255Z,33.47
2018-02-19T20:15:52.886Z,30.88
2018-02-19T20:18:19.506Z,30.92
2018-02-19T20:20:46.121Z,33.47
2018-02-19T20:23:12.811Z,33.63
2018-02-19T20:25:39.445Z,33.58
2018-02-19T20:28:06.090Z,30.27
2018-02-19T20:30:32.842Z,31.92
2018-02-19T20:32:59.606Z,32.58
2018-02-19T20:35:26.219Z,28.95
2018-02-19T20:37:52.919Z,28.60
2018-02-19T20:40:19.498Z,31.20
2018-02-19T20:42:46.105Z,30.80
2018-02-19T20:45:12.734Z,30.55
2018-02-19T20:47:39.353Z,31.10
2018-02-19T20:50:06.051Z,31.52
2018-02-19T20:52:32.682Z,29.55
2018-02-19T20:54:59.298Z,32.08
2018-02-19T20:57:25.910Z,32.78
2018-02-19T20:59:52.601Z,34.13
2018-02-19T21:02:19.222Z,31.50
2018-02-19T21:04:45.882Z,31.35
2018-02-19T21:07:12.562Z,32.60
2018-02-19T21:09:39.183Z,33.10
2018-02-19T21:12:05.894Z,31.00
2018-02-19T21:14:32.530Z,31.17
2018-02-19T21:16:59.145Z,32.22
2018-02-19T21:19:25.754Z,33.40
2018-02-19T21:21:52.450Z,33.95
2018-02-19T21:24:19.091Z,33.92
2018-02-19T21:26:45.701Z,33.30
2018-02-19T21:29:12.370Z,36.83
2018-02-19T21:31:38.990Z,35.35
2018-02-19T21:34:05.650Z,35.20
2018-02-19T21:36:32.274Z,33.22
2018-02-19T21:38:58.881Z,34.00
2018-02-19T21:41:25.508Z,33.92
2018-02-19T21:43:52.126Z,32.75
2018-02-19T21:46:18.842Z,35.03
2018-02-19T21:48:45.508Z,40.33
2018-02-19T21:51:12.102Z,36.53
2018-02-19T21:53:38.750Z,45.00
2018-02-19T21:56:05.450Z,40.25
2018-02-19T21:58:32.618Z,43.70
2018-02-19T22:00:59.251Z,36.17
2018-02-19T22:03:25.863Z,35.55
2018-02-19T22:05:52.569Z,36.17
2018-02-19T22:08:19.189Z,35.50
2018-02-19T22:10:45.802Z,33.70
2018-02-19T22:13:12.486Z,35.13
2018-02-19T22:15:39.122Z,33.85
2018-02-19T22:18:05.770Z,30.33
2018-02-19T22:20:32.402Z,32.75
2018-02-19T22:22:59.046Z,31.80
2018-02-19T22:25:25.682Z,31.17
2018-02-19T22:27:52.306Z,31.80
2018-02-19T22:30:18.930Z,32.90
2018-02-19T22:32:45.537Z,32.47
2018-02-19T22:35:12.237Z,31.87
2018-02-19T22:37:38.845Z,34.28
2018-02-19T22:40:05.462Z,34.78
2018-02-19T22:42:32.154Z,33.92
2018-02-19T22:44:58.794Z,36.00
2018-02-19T22:47:25.434Z,34.72
2018-02-19T22:49:52.081Z,35.33
2018-02-19T22:52:18.695Z,33.78
2018-02-19T22:54:45.391Z,34.20
2018-02-19T22:57:12.098Z,33.22
2018-02-19T22:59:38.734Z,33.50
2018-02-19T23:02:05.342Z,32.45
2018-02-19T23:04:31.966Z,31.80
2018-02-19T23:06:58.577Z,33.10
2018-02-19T23:09:25.185Z,35.00
2018-02-19T23:11:51.920Z,33.40
2018-02-19T23:14:18.524Z,30.50
2018-02-19T23:16:45.206Z,32.53
2018-02-19T23:19:11.839Z,30.80
2018-02-19T23:21:38.450Z,31.60
2018-02-19T23:24:05.065Z,35.50
2018-02-19T23:26:31.690Z,34.67
2018-02-19T23:28:58.398Z,37.38
2018-02-19T23:31:25.011Z,46.58
2018-02-19T23:33:51.678Z,40.92
2018-02-19T23:36:18.317Z,43.00
2018-02-19T23:38:44.929Z,40.22
2018-02-19T23:41:11.562Z,43.35
2018-02-19T23:43:38.174Z,46.42
2018-02-19T23:46:04.785Z,39.08
2018-02-19T23:48:31.452Z,36.58
2018-02-19T23:50:58.064Z,32.50
2018-02-19T23:53:24.673Z,31.12
2018-02-19T23:55:51.306Z,30.90
2018-02-19T23:58:18.009Z,31.02
